sensor_id;sensor_type;location;lat;lon;timestamp;P1;durP1;ratioP1;P2;durP2;ratioP2
78308;SDS011;67566;42.022;21.356;2023-07-31T00:00:07;10.50;;;9.50;;
78308;SDS011;67566;42.022;21.356;2023-07-31T00:02:34;13.02;;;10.68;;
78308;SDS011;67566;42.022;21.356;2023-07-31T00:05:00;12.13;;;9.60;;
78308;SDS011;67566;42.022;21.356;2023-07-31T00:07:26;11.55;;;10.32;;
78308;SDS011;67566;42.022;21.356;2023-07-31T00:09:52;12.38;;;9.02;;
78308;SDS011;67566;42.022;21.356;2023-07-31T00:12:18;10.98;;;9.82;;
78308;SDS011;67566;42.022;21.356;2023-07-31T00:14:44;10.48;;;9.38;;
78308;SDS011;67566;42.022;21.356;2023-07-31T00:17:09;10.75;;;9.43;;
78308;SDS011;67566;42.022;21.356;2023-07-31T00:19:35;11.23;;;9.93;;
78308;SDS011;67566;42.022;21.356;2023-07-31T00:22:00;9.70;;;8.70;;
78308;SDS011;67566;42.022;21.356;2023-07-31T00:24:26;11.57;;;9.20;;
78308;SDS011;67566;42.022;21.356;2023-07-31T00:26:51;9.75;;;8.75;;
78308;SDS011;67566;42.022;21.356;2023-07-31T00:29:17;12.15;;;8.88;;
78308;SDS011;67566;42.022;21.356;2023-07-31T00:31:42;12.60;;;8.82;;
78308;SDS011;67566;42.022;21.356;2023-07-31T00:34:08;9.02;;;8.13;;
78308;SDS011;67566;42.022;21.356;2023-07-31T00:36:33;13.50;;;9.32;;
78308;SDS011;67566;42.022;21.356;2023-07-31T00:38:59;10.77;;;8.68;;
78308;SDS011;67566;42.022;21.356;2023-07-31T00:41:24;11.45;;;9.73;;
78308;SDS011;67566;42.022;21.356;2023-07-31T00:43:50;12.27;;;8.60;;
78308;SDS011;67566;42.022;21.356;2023-07-31T00:46:15;10.05;;;9.05;;
78308;SDS011;67566;42.022;21.356;2023-07-31T00:48:41;10.43;;;8.85;;
78308;SDS011;67566;42.022;21.356;2023-07-31T00:51:07;11.70;;;8.85;;
78308;SDS011;67566;42.022;21.356;2023-07-31T00:53:33;10.80;;;9.48;;
78308;SDS011;67566;42.022;21.356;2023-07-31T00:55:59;12.32;;;9.43;;
78308;SDS011;67566;42.022;21.356;2023-07-31T00:58:25;12.00;;;9.40;;
78308;SDS011;67566;42.022;21.356;2023-07-31T01:00:50;13.43;;;9.95;;
78308;SDS011;67566;42.022;21.356;2023-07-31T01:03:16;13.73;;;10.48;;
78308;SDS011;67566;42.022;21.356;2023-07-31T01:05:43;13.98;;;9.98;;
78308;SDS011;67566;42.022;21.356;2023-07-31T01:10:54;13.82;;;10.23;;
78308;SDS011;67566;42.022;21.356;2023-07-31T01:13:25;11.23;;;9.70;;
78308;SDS011;67566;42.022;21.356;2023-07-31T01:15:51;12.20;;;10.50;;
78308;SDS011;67566;42.022;21.356;2023-07-31T01:18:17;13.82;;;10.55;;
78308;SDS011;67566;42.022;21.356;2023-07-31T01:20:42;12.88;;;10.32;;
78308;SDS011;67566;42.022;21.356;2023-07-31T01:31:07;12.00;;;9.82;;
78308;SDS011;67566;42.022;21.356;2023-07-31T01:33:36;12.32;;;10.25;;
78308;SDS011;67566;42.022;21.356;2023-07-31T01:36:02;13.07;;;10.40;;
78308;SDS011;67566;42.022;21.356;2023-07-31T01:38:28;11.60;;;9.95;;
78308;SDS011;67566;42.022;21.356;2023-07-31T01:40:54;10.52;;;9.50;;
78308;SDS011;67566;42.022;21.356;2023-07-31T01:43:19;12.32;;;9.30;;
78308;SDS011;67566;42.022;21.356;2023-07-31T01:45:45;10.73;;;9.52;;
78308;SDS011;67566;42.022;21.356;2023-07-31T01:48:11;11.60;;;9.38;;
78308;SDS011;67566;42.022;21.356;2023-07-31T01:50:36;11.60;;;9.50;;
78308;SDS011;67566;42.022;21.356;2023-07-31T01:53:01;13.98;;;9.32;;
78308;SDS011;67566;42.022;21.356;2023-07-31T01:55:27;10.48;;;9.38;;
78308;SDS011;67566;42.022;21.356;2023-07-31T01:57:52;11.95;;;9.93;;
78308;SDS011;67566;42.022;21.356;2023-07-31T02:00:18;11.55;;;9.68;;
78308;SDS011;67566;42.022;21.356;2023-07-31T02:02:44;14.93;;;10.50;;
78308;SDS011;67566;42.022;21.356;2023-07-31T02:05:09;11.18;;;9.82;;
78308;SDS011;67566;42.022;21.356;2023-07-31T02:07:34;15.13;;;10.95;;
78308;SDS011;67566;42.022;21.356;2023-07-31T02:10:00;11.40;;;9.68;;
78308;SDS011;67566;42.022;21.356;2023-07-31T02:12:26;12.93;;;10.13;;
78308;SDS011;67566;42.022;21.356;2023-07-31T02:14:51;13.05;;;10.40;;
78308;SDS011;67566;42.022;21.356;2023-07-31T02:17:17;12.40;;;8.68;;
78308;SDS011;67566;42.022;21.356;2023-07-31T02:19:42;11.65;;;8.80;;
78308;SDS011;67566;42.022;21.356;2023-07-31T02:22:07;14.23;;;8.70;;
78308;SDS011;67566;42.022;21.356;2023-07-31T02:24:33;14.27;;;8.50;;
78308;SDS011;67566;42.022;21.356;2023-07-31T02:26:58;14.10;;;9.00;;
78308;SDS011;67566;42.022;21.356;2023-07-31T02:29:24;16.15;;;8.27;;
78308;SDS011;67566;42.022;21.356;2023-07-31T02:31:49;17.90;;;9.02;;
78308;SDS011;67566;42.022;21.356;2023-07-31T02:34:15;16.27;;;9.20;;
78308;SDS011;67566;42.022;21.356;2023-07-31T02:36:40;21.38;;;10.18;;
78308;SDS011;67566;42.022;21.356;2023-07-31T02:39:06;16.00;;;8.40;;
78308;SDS011;67566;42.022;21.356;2023-07-31T02:41:31;16.85;;;9.18;;
78308;SDS011;67566;42.022;21.356;2023-07-31T02:43:57;16.42;;;9.52;;
78308;SDS011;67566;42.022;21.356;2023-07-31T02:46:22;17.48;;;8.63;;
78308;SDS011;67566;42.022;21.356;2023-07-31T02:48:49;17.83;;;8.48;;
78308;SDS011;67566;42.022;21.356;2023-07-31T02:51:15;15.95;;;9.50;;
78308;SDS011;67566;42.022;21.356;2023-07-31T02:53:41;14.60;;;8.57;;
78308;SDS011;67566;42.022;21.356;2023-07-31T02:56:06;14.60;;;8.63;;
78308;SDS011;67566;42.022;21.356;2023-07-31T02:58:32;18.67;;;9.52;;
78308;SDS011;67566;42.022;21.356;2023-07-31T03:00:58;14.18;;;9.30;;
78308;SDS011;67566;42.022;21.356;2023-07-31T03:03:24;13.48;;;8.68;;
78308;SDS011;67566;42.022;21.356;2023-07-31T03:05:49;19.88;;;9.15;;
78308;SDS011;67566;42.022;21.356;2023-07-31T03:08:15;16.08;;;9.00;;
78308;SDS011;67566;42.022;21.356;2023-07-31T03:10:40;13.00;;;8.98;;
78308;SDS011;67566;42.022;21.356;2023-07-31T03:13:06;15.07;;;8.50;;
78308;SDS011;67566;42.022;21.356;2023-07-31T03:15:32;16.90;;;8.77;;
78308;SDS011;67566;42.022;21.356;2023-07-31T03:17:57;16.90;;;9.48;;
78308;SDS011;67566;42.022;21.356;2023-07-31T03:20:23;16.17;;;8.65;;
78308;SDS011;67566;42.022;21.356;2023-07-31T03:22:48;13.32;;;8.65;;
78308;SDS011;67566;42.022;21.356;2023-07-31T03:25:14;15.25;;;9.40;;
78308;SDS011;67566;42.022;21.356;2023-07-31T03:27:39;15.20;;;9.23;;
78308;SDS011;67566;42.022;21.356;2023-07-31T03:30:05;17.50;;;9.02;;
78308;SDS011;67566;42.022;21.356;2023-07-31T03:32:31;17.15;;;9.18;;
78308;SDS011;67566;42.022;21.356;2023-07-31T03:34:57;14.00;;;8.65;;
78308;SDS011;67566;42.022;21.356;2023-07-31T03:37:23;12.35;;;9.02;;
78308;SDS011;67566;42.022;21.356;2023-07-31T03:39:48;11.90;;;8.90;;
78308;SDS011;67566;42.022;21.356;2023-07-31T03:42:13;12.32;;;8.15;;
78308;SDS011;67566;42.022;21.356;2023-07-31T03:44:39;9.45;;;8.23;;
78308;SDS011;67566;42.022;21.356;2023-07-31T03:47:05;15.90;;;8.77;;
78308;SDS011;67566;42.022;21.356;2023-07-31T03:49:31;13.63;;;9.15;;
78308;SDS011;67566;42.022;21.356;2023-07-31T03:51:56;11.88;;;7.78;;
78308;SDS011;67566;42.022;21.356;2023-07-31T03:54:22;13.30;;;8.73;;
78308;SDS011;67566;42.022;21.356;2023-07-31T03:56:47;11.48;;;8.38;;
78308;SDS011;67566;42.022;21.356;2023-07-31T03:59:13;14.10;;;8.80;;
78308;SDS011;67566;42.022;21.356;2023-07-31T04:01:38;14.27;;;8.48;;
78308;SDS011;67566;42.022;21.356;2023-07-31T04:04:04;9.32;;;8.02;;
78308;SDS011;67566;42.022;21.356;2023-07-31T04:06:30;12.38;;;7.95;;
78308;SDS011;67566;42.022;21.356;2023-07-31T04:08:55;13.27;;;9.10;;
78308;SDS011;67566;42.022;21.356;2023-07-31T04:11:21;12.70;;;8.85;;
78308;SDS011;67566;42.022;21.356;2023-07-31T04:13:46;10.75;;;8.15;;
78308;SDS011;67566;42.022;21.356;2023-07-31T04:16:12;9.43;;;7.68;;
78308;SDS011;67566;42.022;21.356;2023-07-31T04:18:37;12.63;;;7.55;;
78308;SDS011;67566;42.022;21.356;2023-07-31T04:21:03;9.88;;;7.25;;
78308;SDS011;67566;42.022;21.356;2023-07-31T04:23:29;10.40;;;7.63;;
78308;SDS011;67566;42.022;21.356;2023-07-31T04:25:55;11.50;;;8.18;;
78308;SDS011;67566;42.022;21.356;2023-07-31T04:28:20;11.02;;;7.82;;
78308;SDS011;67566;42.022;21.356;2023-07-31T04:30:46;10.77;;;6.82;;
78308;SDS011;67566;42.022;21.356;2023-07-31T04:33:12;11.05;;;8.32;;
78308;SDS011;67566;42.022;21.356;2023-07-31T04:35:37;12.32;;;7.82;;
78308;SDS011;67566;42.022;21.356;2023-07-31T04:38:03;8.90;;;7.50;;
78308;SDS011;67566;42.022;21.356;2023-07-31T04:40:28;8.73;;;7.55;;
78308;SDS011;67566;42.022;21.356;2023-07-31T04:42:54;9.52;;;7.57;;
78308;SDS011;67566;42.022;21.356;2023-07-31T04:45:19;10.50;;;6.57;;
78308;SDS011;67566;42.022;21.356;2023-07-31T04:47:45;8.07;;;7.22;;
78308;SDS011;67566;42.022;21.356;2023-07-31T04:50:10;12.25;;;8.05;;
78308;SDS011;67566;42.022;21.356;2023-07-31T04:52:36;8.50;;;7.28;;
78308;SDS011;67566;42.022;21.356;2023-07-31T04:55:01;10.40;;;7.80;;
78308;SDS011;67566;42.022;21.356;2023-07-31T04:57:27;10.15;;;7.25;;
78308;SDS011;67566;42.022;21.356;2023-07-31T04:59:53;8.93;;;7.20;;
78308;SDS011;67566;42.022;21.356;2023-07-31T05:02:18;9.60;;;7.15;;
78308;SDS011;67566;42.022;21.356;2023-07-31T05:04:44;9.20;;;7.10;;
78308;SDS011;67566;42.022;21.356;2023-07-31T05:07:09;8.68;;;7.78;;
78308;SDS011;67566;42.022;21.356;2023-07-31T05:09:35;10.27;;;7.03;;
78308;SDS011;67566;42.022;21.356;2023-07-31T05:12:00;8.90;;;7.47;;
78308;SDS011;67566;42.022;21.356;2023-07-31T05:14:26;8.23;;;7.28;;
78308;SDS011;67566;42.022;21.356;2023-07-31T05:16:51;10.68;;;6.82;;
78308;SDS011;67566;42.022;21.356;2023-07-31T05:19:17;10.05;;;6.95;;
78308;SDS011;67566;42.022;21.356;2023-07-31T05:21:43;7.80;;;6.32;;
78308;SDS011;67566;42.022;21.356;2023-07-31T05:24:09;7.45;;;6.65;;
78308;SDS011;67566;42.022;21.356;2023-07-31T05:26:35;8.95;;;7.25;;
78308;SDS011;67566;42.022;21.356;2023-07-31T05:29:01;7.18;;;6.45;;
78308;SDS011;67566;42.022;21.356;2023-07-31T05:31:26;7.70;;;6.78;;
78308;SDS011;67566;42.022;21.356;2023-07-31T05:33:52;8.00;;;7.20;;
78308;SDS011;67566;42.022;21.356;2023-07-31T05:36:17;9.38;;;7.10;;
78308;SDS011;67566;42.022;21.356;2023-07-31T05:38:43;8.40;;;6.50;;
78308;SDS011;67566;42.022;21.356;2023-07-31T05:41:11;6.82;;;5.07;;
78308;SDS011;67566;42.022;21.356;2023-07-31T05:43:38;9.70;;;5.88;;
78308;SDS011;67566;42.022;21.356;2023-07-31T05:46:03;6.35;;;5.72;;
78308;SDS011;67566;42.022;21.356;2023-07-31T05:48:29;6.63;;;5.22;;
78308;SDS011;67566;42.022;21.356;2023-07-31T05:50:54;6.82;;;5.40;;
78308;SDS011;67566;42.022;21.356;2023-07-31T05:53:20;9.60;;;5.68;;
78308;SDS011;67566;42.022;21.356;2023-07-31T05:55:45;7.15;;;5.20;;
78308;SDS011;67566;42.022;21.356;2023-07-31T05:58:11;7.63;;;5.88;;
78308;SDS011;67566;42.022;21.356;2023-07-31T06:00:36;7.85;;;5.82;;
78308;SDS011;67566;42.022;21.356;2023-07-31T06:03:02;7.72;;;6.43;;
78308;SDS011;67566;42.022;21.356;2023-07-31T06:05:27;7.85;;;5.85;;
78308;SDS011;67566;42.022;21.356;2023-07-31T06:07:55;9.20;;;7.00;;
78308;SDS011;67566;42.022;21.356;2023-07-31T06:10:20;8.35;;;7.05;;
78308;SDS011;67566;42.022;21.356;2023-07-31T06:12:46;9.70;;;6.40;;
78308;SDS011;67566;42.022;21.356;2023-07-31T06:15:11;8.45;;;5.70;;
78308;SDS011;67566;42.022;21.356;2023-07-31T06:17:37;7.78;;;6.20;;
78308;SDS011;67566;42.022;21.356;2023-07-31T06:20:02;7.40;;;6.10;;
78308;SDS011;67566;42.022;21.356;2023-07-31T06:22:31;7.32;;;6.00;;
78308;SDS011;67566;42.022;21.356;2023-07-31T06:24:58;7.50;;;5.82;;
78308;SDS011;67566;42.022;21.356;2023-07-31T06:27:23;7.57;;;6.18;;
78308;SDS011;67566;42.022;21.356;2023-07-31T06:29:49;8.40;;;6.18;;
78308;SDS011;67566;42.022;21.356;2023-07-31T06:32:14;8.95;;;6.40;;
78308;SDS011;67566;42.022;21.356;2023-07-31T06:34:40;8.75;;;6.70;;
78308;SDS011;67566;42.022;21.356;2023-07-31T06:37:05;8.35;;;6.82;;
78308;SDS011;67566;42.022;21.356;2023-07-31T06:39:31;7.43;;;6.55;;
78308;SDS011;67566;42.022;21.356;2023-07-31T06:41:56;11.18;;;6.45;;
78308;SDS011;67566;42.022;21.356;2023-07-31T06:44:22;8.10;;;6.05;;
78308;SDS011;67566;42.022;21.356;2023-07-31T06:46:47;6.82;;;6.13;;
78308;SDS011;67566;42.022;21.356;2023-07-31T06:49:13;8.65;;;6.80;;
78308;SDS011;67566;42.022;21.356;2023-07-31T06:51:40;7.20;;;5.93;;
78308;SDS011;67566;42.022;21.356;2023-07-31T06:54:06;8.55;;;6.50;;
78308;SDS011;67566;42.022;21.356;2023-07-31T06:56:32;7.38;;;6.35;;
78308;SDS011;67566;42.022;21.356;2023-07-31T06:58:58;8.05;;;5.90;;
78308;SDS011;67566;42.022;21.356;2023-07-31T07:01:23;7.18;;;6.47;;
78308;SDS011;67566;42.022;21.356;2023-07-31T07:03:49;9.60;;;6.47;;
78308;SDS011;67566;42.022;21.356;2023-07-31T07:06:18;6.93;;;5.68;;
78308;SDS011;67566;42.022;21.356;2023-07-31T07:08:44;8.50;;;5.85;;
78308;SDS011;67566;42.022;21.356;2023-07-31T07:11:10;7.32;;;5.60;;
78308;SDS011;67566;42.022;21.356;2023-07-31T07:13:35;7.47;;;6.10;;
78308;SDS011;67566;42.022;21.356;2023-07-31T07:16:01;6.07;;;5.50;;
78308;SDS011;67566;42.022;21.356;2023-07-31T07:18:27;6.45;;;5.35;;
78308;SDS011;67566;42.022;21.356;2023-07-31T07:20:53;9.23;;;6.22;;
78308;SDS011;67566;42.022;21.356;2023-07-31T07:23:19;6.35;;;4.88;;
78308;SDS011;67566;42.022;21.356;2023-07-31T07:25:46;6.28;;;4.85;;
78308;SDS011;67566;42.022;21.356;2023-07-31T07:28:12;7.03;;;4.63;;
78308;SDS011;67566;42.022;21.356;2023-07-31T07:30:38;6.22;;;4.97;;
78308;SDS011;67566;42.022;21.356;2023-07-31T07:33:04;6.65;;;4.43;;
78308;SDS011;67566;42.022;21.356;2023-07-31T07:35:30;6.80;;;5.22;;
78308;SDS011;67566;42.022;21.356;2023-07-31T07:37:57;5.20;;;4.70;;
78308;SDS011;67566;42.022;21.356;2023-07-31T07:40:23;6.50;;;5.63;;
78308;SDS011;67566;42.022;21.356;2023-07-31T07:42:49;6.30;;;5.45;;
78308;SDS011;67566;42.022;21.356;2023-07-31T07:45:15;6.22;;;5.32;;
78308;SDS011;67566;42.022;21.356;2023-07-31T07:47:41;8.00;;;5.70;;
78308;SDS011;67566;42.022;21.356;2023-07-31T07:50:07;5.88;;;5.28;;
78308;SDS011;67566;42.022;21.356;2023-07-31T07:52:33;6.03;;;4.88;;
78308;SDS011;67566;42.022;21.356;2023-07-31T07:54:58;5.65;;;4.57;;
78308;SDS011;67566;42.022;21.356;2023-07-31T07:57:25;5.97;;;4.47;;
78308;SDS011;67566;42.022;21.356;2023-07-31T07:59:51;5.45;;;4.63;;
78308;SDS011;67566;42.022;21.356;2023-07-31T08:02:16;5.18;;;4.68;;
78308;SDS011;67566;42.022;21.356;2023-07-31T08:04:41;6.20;;;5.10;;
78308;SDS011;67566;42.022;21.356;2023-07-31T08:07:07;6.50;;;5.30;;
78308;SDS011;67566;42.022;21.356;2023-07-31T08:09:32;6.97;;;5.35;;
78308;SDS011;67566;42.022;21.356;2023-07-31T08:11:58;5.43;;;4.57;;
78308;SDS011;67566;42.022;21.356;2023-07-31T08:14:27;6.63;;;5.07;;
78308;SDS011;67566;42.022;21.356;2023-07-31T08:16:52;6.55;;;4.60;;
78308;SDS011;67566;42.022;21.356;2023-07-31T08:19:18;4.85;;;3.95;;
78308;SDS011;67566;42.022;21.356;2023-07-31T08:21:43;5.13;;;4.57;;
78308;SDS011;67566;42.022;21.356;2023-07-31T08:24:09;5.30;;;4.53;;
78308;SDS011;67566;42.022;21.356;2023-07-31T08:26:34;5.00;;;4.20;;
78308;SDS011;67566;42.022;21.356;2023-07-31T08:29:00;5.25;;;4.47;;
78308;SDS011;67566;42.022;21.356;2023-07-31T08:31:25;7.25;;;4.80;;
78308;SDS011;67566;42.022;21.356;2023-07-31T08:33:52;5.28;;;4.18;;
78308;SDS011;67566;42.022;21.356;2023-07-31T08:36:17;7.13;;;4.63;;
78308;SDS011;67566;42.022;21.356;2023-07-31T08:38:43;7.15;;;4.72;;
78308;SDS011;67566;42.022;21.356;2023-07-31T08:41:10;5.60;;;4.90;;
78308;SDS011;67566;42.022;21.356;2023-07-31T08:43:36;4.22;;;3.70;;
78308;SDS011;67566;42.022;21.356;2023-07-31T08:46:03;5.03;;;3.67;;
78308;SDS011;67566;42.022;21.356;2023-07-31T08:48:28;6.28;;;3.75;;
78308;SDS011;67566;42.022;21.356;2023-07-31T08:50:56;4.28;;;3.50;;
78308;SDS011;67566;42.022;21.356;2023-07-31T08:53:21;4.97;;;3.47;;
78308;SDS011;67566;42.022;21.356;2023-07-31T08:55:47;4.50;;;3.40;;
78308;SDS011;67566;42.022;21.356;2023-07-31T08:58:13;4.07;;;3.17;;
78308;SDS011;67566;42.022;21.356;2023-07-31T09:00:40;3.75;;;3.25;;
78308;SDS011;67566;42.022;21.356;2023-07-31T09:03:09;5.05;;;3.25;;
78308;SDS011;67566;42.022;21.356;2023-07-31T09:05:40;4.55;;;3.15;;
78308;SDS011;67566;42.022;21.356;2023-07-31T09:08:09;3.70;;;2.97;;
78308;SDS011;67566;42.022;21.356;2023-07-31T09:10:40;3.95;;;3.30;;
78308;SDS011;67566;42.022;21.356;2023-07-31T09:13:11;4.13;;;3.00;;
78308;SDS011;67566;42.022;21.356;2023-07-31T09:15:40;4.93;;;3.33;;
78308;SDS011;67566;42.022;21.356;2023-07-31T09:20:35;4.05;;;3.25;;
78308;SDS011;67566;42.022;21.356;2023-07-31T09:23:06;7.57;;;2.83;;
78308;SDS011;67566;42.022;21.356;2023-07-31T09:25:33;6.43;;;3.25;;
78308;SDS011;67566;42.022;21.356;2023-07-31T09:27:59;4.80;;;3.22;;
78308;SDS011;67566;42.022;21.356;2023-07-31T09:30:26;4.13;;;3.05;;
78308;SDS011;67566;42.022;21.356;2023-07-31T09:33:00;4.10;;;2.53;;
78308;SDS011;67566;42.022;21.356;2023-07-31T09:35:32;3.75;;;3.08;;
78308;SDS011;67566;42.022;21.356;2023-07-31T09:38:00;3.20;;;2.42;;
78308;SDS011;67566;42.022;21.356;2023-07-31T09:40:32;4.97;;;3.03;;
78308;SDS011;67566;42.022;21.356;2023-07-31T09:45:28;3.45;;;2.45;;
78308;SDS011;67566;42.022;21.356;2023-07-31T09:47:54;6.13;;;2.40;;
78308;SDS011;67566;42.022;21.356;2023-07-31T09:50:21;4.07;;;2.38;;
78308;SDS011;67566;42.022;21.356;2023-07-31T09:52:48;3.35;;;2.53;;
78308;SDS011;67566;42.022;21.356;2023-07-31T09:55:14;3.08;;;2.33;;
78308;SDS011;67566;42.022;21.356;2023-07-31T09:57:40;3.03;;;2.20;;
78308;SDS011;67566;42.022;21.356;2023-07-31T10:00:08;3.88;;;2.85;;
78308;SDS011;67566;42.022;21.356;2023-07-31T10:02:34;5.43;;;2.72;;
78308;SDS011;67566;42.022;21.356;2023-07-31T10:05:02;3.97;;;2.25;;
78308;SDS011;67566;42.022;21.356;2023-07-31T10:07:29;4.35;;;2.45;;
78308;SDS011;67566;42.022;21.356;2023-07-31T10:09:59;5.50;;;2.60;;
78308;SDS011;67566;42.022;21.356;2023-07-31T10:12:26;3.30;;;2.08;;
78308;SDS011;67566;42.022;21.356;2023-07-31T10:14:55;3.63;;;2.33;;
78308;SDS011;67566;42.022;21.356;2023-07-31T10:17:21;3.28;;;2.00;;
78308;SDS011;67566;42.022;21.356;2023-07-31T10:19:48;3.75;;;2.03;;
78308;SDS011;67566;42.022;21.356;2023-07-31T10:22:14;4.18;;;2.45;;
78308;SDS011;67566;42.022;21.356;2023-07-31T10:24:42;3.45;;;2.30;;
78308;SDS011;67566;42.022;21.356;2023-07-31T10:27:08;3.20;;;2.20;;
78308;SDS011;67566;42.022;21.356;2023-07-31T10:29:35;3.70;;;2.03;;
78308;SDS011;67566;42.022;21.356;2023-07-31T10:32:06;3.72;;;2.53;;
78308;SDS011;67566;42.022;21.356;2023-07-31T10:34:35;3.55;;;2.30;;
78308;SDS011;67566;42.022;21.356;2023-07-31T10:37:21;3.42;;;2.40;;
78308;SDS011;67566;42.022;21.356;2023-07-31T10:40:03;3.92;;;2.40;;
78308;SDS011;67566;42.022;21.356;2023-07-31T10:42:34;3.22;;;2.47;;
78308;SDS011;67566;42.022;21.356;2023-07-31T10:45:06;3.65;;;2.70;;
78308;SDS011;67566;42.022;21.356;2023-07-31T10:53:00;4.38;;;3.03;;
78308;SDS011;67566;42.022;21.356;2023-07-31T10:55:32;4.60;;;3.15;;
78308;SDS011;67566;42.022;21.356;2023-07-31T10:58:08;3.92;;;3.00;;
78308;SDS011;67566;42.022;21.356;2023-07-31T11:00:40;4.63;;;2.83;;
78308;SDS011;67566;42.022;21.356;2023-07-31T11:03:16;4.90;;;3.30;;
78308;SDS011;67566;42.022;21.356;2023-07-31T11:10:40;4.25;;;3.78;;
78308;SDS011;67566;42.022;21.356;2023-07-31T11:13:06;4.30;;;3.70;;
78308;SDS011;67566;42.022;21.356;2023-07-31T11:15:32;6.05;;;4.25;;
78308;SDS011;67566;42.022;21.356;2023-07-31T11:17:59;4.75;;;3.92;;
78308;SDS011;67566;42.022;21.356;2023-07-31T11:20:29;5.72;;;4.55;;
78308;SDS011;67566;42.022;21.356;2023-07-31T11:22:57;5.15;;;4.57;;
78308;SDS011;67566;42.022;21.356;2023-07-31T11:25:24;5.60;;;5.00;;
78308;SDS011;67566;42.022;21.356;2023-07-31T11:27:50;5.60;;;4.97;;
78308;SDS011;67566;42.022;21.356;2023-07-31T11:30:18;5.72;;;4.88;;
78308;SDS011;67566;42.022;21.356;2023-07-31T11:32:45;6.10;;;5.32;;
78308;SDS011;67566;42.022;21.356;2023-07-31T11:35:13;5.95;;;5.10;;
78308;SDS011;67566;42.022;21.356;2023-07-31T11:37:42;5.30;;;4.80;;
78308;SDS011;67566;42.022;21.356;2023-07-31T11:40:09;5.80;;;5.20;;
78308;SDS011;67566;42.022;21.356;2023-07-31T11:42:35;5.53;;;4.85;;
78308;SDS011;67566;42.022;21.356;2023-07-31T11:45:04;5.43;;;4.55;;
78308;SDS011;67566;42.022;21.356;2023-07-31T11:47:33;5.63;;;5.00;;
78308;SDS011;67566;42.022;21.356;2023-07-31T11:50:01;7.47;;;6.10;;
78308;SDS011;67566;42.022;21.356;2023-07-31T11:52:28;6.65;;;5.53;;
78308;SDS011;67566;42.022;21.356;2023-07-31T11:54:57;6.60;;;5.80;;
78308;SDS011;67566;42.022;21.356;2023-07-31T11:57:24;7.32;;;5.85;;
78308;SDS011;67566;42.022;21.356;2023-07-31T11:59:50;6.40;;;5.70;;
78308;SDS011;67566;42.022;21.356;2023-07-31T12:02:16;7.30;;;6.47;;
78308;SDS011;67566;42.022;21.356;2023-07-31T12:04:43;9.00;;;6.25;;
78308;SDS011;67566;42.022;21.356;2023-07-31T12:07:09;8.75;;;6.55;;
78308;SDS011;67566;42.022;21.356;2023-07-31T12:09:34;7.43;;;6.68;;
78308;SDS011;67566;42.022;21.356;2023-07-31T12:12:00;8.05;;;6.80;;
78308;SDS011;67566;42.022;21.356;2023-07-31T12:14:28;9.70;;;6.45;;
78308;SDS011;67566;42.022;21.356;2023-07-31T12:16:57;8.02;;;6.50;;
78308;SDS011;67566;42.022;21.356;2023-07-31T12:19:25;7.53;;;6.78;;
78308;SDS011;67566;42.022;21.356;2023-07-31T12:21:55;6.45;;;5.75;;
78308;SDS011;67566;42.022;21.356;2023-07-31T12:24:27;8.80;;;6.18;;
78308;SDS011;67566;42.022;21.356;2023-07-31T12:26:52;7.97;;;6.05;;
78308;SDS011;67566;42.022;21.356;2023-07-31T12:29:19;6.35;;;5.28;;
78308;SDS011;67566;42.022;21.356;2023-07-31T12:31:45;7.45;;;6.15;;
78308;SDS011;67566;42.022;21.356;2023-07-31T12:34:15;6.50;;;5.80;;
78308;SDS011;67566;42.022;21.356;2023-07-31T12:36:45;5.45;;;4.95;;
78308;SDS011;67566;42.022;21.356;2023-07-31T12:39:12;6.72;;;5.40;;
78308;SDS011;67566;42.022;21.356;2023-07-31T12:41:37;6.88;;;5.32;;
78308;SDS011;67566;42.022;21.356;2023-07-31T12:44:03;5.60;;;5.00;;
78308;SDS011;67566;42.022;21.356;2023-07-31T12:46:29;5.75;;;4.90;;
78308;SDS011;67566;42.022;21.356;2023-07-31T12:48:54;5.45;;;4.53;;
78308;SDS011;67566;42.022;21.356;2023-07-31T12:51:20;4.82;;;4.32;;
78308;SDS011;67566;42.022;21.356;2023-07-31T12:53:46;4.38;;;3.97;;
78308;SDS011;67566;42.022;21.356;2023-07-31T12:56:11;6.38;;;4.72;;
78308;SDS011;67566;42.022;21.356;2023-07-31T12:58:37;4.70;;;4.20;;
78308;SDS011;67566;42.022;21.356;2023-07-31T13:01:02;5.45;;;4.20;;
78308;SDS011;67566;42.022;21.356;2023-07-31T13:03:28;4.97;;;4.10;;
78308;SDS011;67566;42.022;21.356;2023-07-31T13:05:53;4.63;;;3.58;;
78308;SDS011;67566;42.022;21.356;2023-07-31T13:08:19;4.47;;;3.60;;
78308;SDS011;67566;42.022;21.356;2023-07-31T13:10:45;4.18;;;3.40;;
78308;SDS011;67566;42.022;21.356;2023-07-31T13:13:11;5.32;;;3.60;;
78308;SDS011;67566;42.022;21.356;2023-07-31T13:15:36;4.38;;;3.22;;
78308;SDS011;67566;42.022;21.356;2023-07-31T13:18:02;4.88;;;3.58;;
78308;SDS011;67566;42.022;21.356;2023-07-31T13:20:27;4.10;;;3.35;;
78308;SDS011;67566;42.022;21.356;2023-07-31T13:22:53;4.18;;;3.30;;
78308;SDS011;67566;42.022;21.356;2023-07-31T13:25:18;4.15;;;3.47;;
78308;SDS011;67566;42.022;21.356;2023-07-31T13:27:44;4.80;;;3.13;;
78308;SDS011;67566;42.022;21.356;2023-07-31T13:30:09;4.47;;;2.83;;
78308;SDS011;67566;42.022;21.356;2023-07-31T13:32:35;4.53;;;2.38;;
78308;SDS011;67566;42.022;21.356;2023-07-31T13:35:04;4.13;;;2.35;;
78308;SDS011;67566;42.022;21.356;2023-07-31T13:37:33;3.95;;;2.47;;
78308;SDS011;67566;42.022;21.356;2023-07-31T13:39:59;3.35;;;2.30;;
78308;SDS011;67566;42.022;21.356;2023-07-31T13:42:25;6.65;;;2.70;;
78308;SDS011;67566;42.022;21.356;2023-07-31T13:44:51;3.33;;;2.55;;
78308;SDS011;67566;42.022;21.356;2023-07-31T13:47:17;4.90;;;2.50;;
78308;SDS011;67566;42.022;21.356;2023-07-31T13:49:42;3.05;;;2.20;;
78308;SDS011;67566;42.022;21.356;2023-07-31T13:52:08;4.15;;;2.70;;
78308;SDS011;67566;42.022;21.356;2023-07-31T13:54:34;3.25;;;2.40;;
78308;SDS011;67566;42.022;21.356;2023-07-31T13:56:59;5.07;;;2.60;;
78308;SDS011;67566;42.022;21.356;2023-07-31T13:59:25;4.03;;;2.33;;
78308;SDS011;67566;42.022;21.356;2023-07-31T14:01:50;4.45;;;2.75;;
78308;SDS011;67566;42.022;21.356;2023-07-31T14:04:16;3.45;;;2.30;;
78308;SDS011;67566;42.022;21.356;2023-07-31T14:06:44;3.90;;;2.30;;
78308;SDS011;67566;42.022;21.356;2023-07-31T14:09:10;4.00;;;2.33;;
78308;SDS011;67566;42.022;21.356;2023-07-31T14:11:35;4.28;;;2.70;;
78308;SDS011;67566;42.022;21.356;2023-07-31T14:14:01;4.18;;;2.53;;
78308;SDS011;67566;42.022;21.356;2023-07-31T14:16:27;5.00;;;2.38;;
78308;SDS011;67566;42.022;21.356;2023-07-31T14:18:53;2.80;;;2.20;;
78308;SDS011;67566;42.022;21.356;2023-07-31T14:21:19;5.93;;;2.42;;
78308;SDS011;67566;42.022;21.356;2023-07-31T14:23:44;4.45;;;2.50;;
78308;SDS011;67566;42.022;21.356;2023-07-31T14:26:10;6.10;;;2.55;;
78308;SDS011;67566;42.022;21.356;2023-07-31T14:28:36;3.80;;;2.70;;
78308;SDS011;67566;42.022;21.356;2023-07-31T14:31:01;4.57;;;3.20;;
78308;SDS011;67566;42.022;21.356;2023-07-31T14:33:27;5.43;;;3.28;;
78308;SDS011;67566;42.022;21.356;2023-07-31T14:35:52;5.47;;;3.88;;
78308;SDS011;67566;42.022;21.356;2023-07-31T14:38:18;3.75;;;2.97;;
78308;SDS011;67566;42.022;21.356;2023-07-31T14:40:43;5.07;;;3.53;;
78308;SDS011;67566;42.022;21.356;2023-07-31T14:43:09;4.50;;;3.72;;
78308;SDS011;67566;42.022;21.356;2023-07-31T14:45:34;5.15;;;3.60;;
78308;SDS011;67566;42.022;21.356;2023-07-31T14:48:00;4.47;;;3.88;;
78308;SDS011;67566;42.022;21.356;2023-07-31T14:50:25;5.07;;;4.07;;